Time;durP1;ratioP1;P1;durP2;ratioP2;P2;SDS_P1;SDS_P2;PMS_P1;PMS_P2;Temp;Humidity;BMP_temperature;BMP_pressure;BME280_temperature;BME280_humidity;BME280_pressure;Samples;Min_cycle;Max_cycle;Signal;HPM_P1;HPM_P2
2023/11/01 00:01:36;;;;;;;1.53;1.10;;;9.90;99.90;;;;;;5088785;28;20625;-74
2023/11/01 00:04:03;;;;;;;3.43;1.13;;;9.90;99.90;;;;;;5083902;28;20716;-75
2023/11/01 00:06:30;;;;;;;0.97;0.80;;;10.00;99.90;;;;;;5085870;28;20639;-73
2023/11/01 00:08:57;;;;;;;0.77;0.77;;;10.00;99.90;;;;;;5086030;28;20738;-73
2023/11/01 00:11:24;;;;;;;0.60;0.60;;;10.00;99.90;;;;;;5093928;28;20659;-74
2023/11/01 00:13:52;;;;;;;3.40;1.00;;;10.00;99.90;;;;;;5096364;28;20671;-74
2023/11/01 00:16:19;;;;;;;0.70;0.70;;;10.00;99.90;;;;;;5087419;28;20632;-74
2023/11/01 00:18:46;;;;;;;0.80;0.80;;;9.90;99.90;;;;;;5090701;28;20628;-74
2023/11/01 00:21:13;;;;;;;0.60;0.60;;;10.00;99.90;;;;;;5092936;28;20621;-74
2023/11/01 00:23:40;;;;;;;0.90;0.90;;;10.00;99.90;;;;;;5094715;28;21228;-75
2023/11/01 00:26:07;;;;;;;1.83;0.90;;;10.00;99.90;;;;;;5083513;28;20631;-74
2023/11/01 00:28:34;;;;;;;0.70;0.70;;;9.90;99.90;;;;;;5082717;28;20956;-74
2023/11/01 00:31:02;;;;;;;0.70;0.70;;;9.90;99.90;;;;;;5091880;28;20624;-75
2023/11/01 00:33:29;;;;;;;1.10;1.00;;;9.90;99.90;;;;;;5090318;28;20766;-75
2023/11/01 00:35:56;;;;;;;1.00;0.90;;;9.80;99.90;;;;;;5086965;28;20639;-74
2023/11/01 00:38:23;;;;;;;1.20;1.10;;;9.80;99.90;;;;;;5088480;28;20626;-74
2023/11/01 00:40:50;;;;;;;1.03;0.80;;;9.80;99.90;;;;;;5084229;28;21194;-73
2023/11/01 00:43:17;;;;;;;1.33;1.10;;;9.70;99.90;;;;;;5089034;28;20625;-73
2023/11/01 00:45:44;;;;;;;2.90;0.80;;;9.70;99.90;;;;;;5090127;28;20625;-73
2023/11/01 00:48:12;;;;;;;1.20;1.10;;;9.70;99.90;;;;;;5085000;28;20625;-73
2023/11/01 00:50:39;;;;;;;0.70;0.60;;;9.80;99.90;;;;;;5086309;28;20625;-73
2023/11/01 00:53:05;;;;;;;1.13;1.03;;;9.80;99.90;;;;;;5092415;28;20636;-74
2023/11/01 00:55:32;;;;;;;2.57;0.70;;;9.90;99.90;;;;;;5095429;28;20992;-73
2023/11/01 00:57:59;;;;;;;0.70;0.60;;;9.90;99.90;;;;;;5085943;28;20633;-74
2023/11/01 01:00:26;;;;;;;0.87;0.87;;;9.80;99.90;;;;;;5086526;28;20637;-75
2023/11/01 01:02:53;;;;;;;1.97;0.97;;;9.80;99.90;;;;;;5083246;28;20625;-74
2023/11/01 01:05:22;;;;;;;1.70;0.93;;;9.80;99.90;;;;;;5088089;28;20625;-74
2023/11/01 01:07:49;;;;;;;1.47;0.90;;;9.90;99.90;;;;;;5088682;28;20677;-74
2023/11/01 01:10:16;;;;;;;2.93;1.37;;;9.90;99.90;;;;;;5092913;28;20743;-74
2023/11/01 01:12:43;;;;;;;1.00;0.93;;;9.90;99.90;;;;;;5092345;28;20643;-74
2023/11/01 01:15:10;;;;;;;0.80;0.80;;;9.90;99.90;;;;;;5089218;28;20668;-74
2023/11/01 01:17:37;;;;;;;0.90;0.90;;;10.00;99.90;;;;;;5091676;28;20631;-74
2023/11/01 01:20:04;;;;;;;0.80;0.80;;;9.90;99.90;;;;;;5087228;28;20625;-74
2023/11/01 01:22:32;;;;;;;1.70;1.60;;;10.00;99.90;;;;;;5088109;28;21067;-74
2023/11/01 01:24:59;;;;;;;1.00;0.70;;;9.90;99.90;;;;;;5088530;28;20624;-74
2023/11/01 01:27:26;;;;;;;1.53;1.43;;;9.90;99.90;;;;;;5088627;28;20637;-74
2023/11/01 01:29:53;;;;;;;0.80;0.80;;;9.90;99.90;;;;;;5089754;28;20725;-74
2023/11/01 01:32:19;;;;;;;2.03;1.47;;;9.90;99.90;;;;;;5087368;28;20680;-74
2023/11/01 01:34:46;;;;;;;1.00;0.83;;;9.90;99.90;;;;;;5092039;28;20672;-74
2023/11/01 01:37:13;;;;;;;0.93;0.83;;;9.90;99.90;;;;;;5085894;28;20629;-74
2023/11/01 01:39:41;;;;;;;1.20;1.10;;;9.90;99.90;;;;;;5085856;28;20624;-73
2023/11/01 01:42:08;;;;;;;0.73;0.73;;;9.90;99.90;;;;;;5091881;28;20621;-73
2023/11/01 01:44:35;;;;;;;0.70;0.70;;;9.80;99.90;;;;;;5094672;28;20625;-73
2023/11/01 01:47:01;;;;;;;1.27;1.17;;;9.90;99.90;;;;;;5090097;28;20629;-74
2023/11/01 01:49:28;;;;;;;2.00;1.00;;;9.90;99.90;;;;;;5094589;28;20635;-74
2023/11/01 01:51:55;;;;;;;1.30;1.20;;;10.00;99.90;;;;;;5091451;28;20617;-74
2023/11/01 01:54:22;;;;;;;1.07;0.97;;;9.90;99.90;;;;;;5099697;28;20668;-73
2023/11/01 01:56:50;;;;;;;0.80;0.80;;;9.90;99.90;;;;;;5099795;28;20637;-73
2023/11/01 01:59:17;;;;;;;0.70;0.70;;;9.90;99.90;;;;;;5085794;28;20625;-74
2023/11/01 02:01:45;;;;;;;0.80;0.80;;;9.90;99.90;;;;;;5087648;28;20639;-74
2023/11/01 02:04:13;;;;;;;1.73;1.37;;;9.80;99.90;;;;;;5090524;28;20658;-74
2023/11/01 02:06:39;;;;;;;1.80;0.90;;;9.80;99.90;;;;;;5091952;28;20972;-74
2023/11/01 02:09:15;;;;;;;1.53;0.90;;;9.80;99.90;;;;;;5086232;28;20661;-74
2023/11/01 02:11:42;;;;;;;2.73;1.20;;;9.80;99.90;;;;;;5091803;28;20686;-74
2023/11/01 02:14:12;;;;;;;0.93;0.80;;;9.70;99.90;;;;;;5090156;28;20969;-74
2023/11/01 02:16:40;;;;;;;1.03;0.93;;;9.80;99.90;;;;;;5094927;28;20632;-74
2023/11/01 02:19:11;;;;;;;0.90;0.80;;;9.80;99.90;;;;;;5087333;28;20741;-74
2023/11/01 02:21:39;;;;;;;1.07;0.90;;;9.80;99.90;;;;;;5094465;28;20628;-74
2023/11/01 02:24:08;;;;;;;0.77;0.60;;;9.70;99.90;;;;;;5093699;28;20632;-73
2023/11/01 02:26:36;;;;;;;1.07;0.97;;;9.80;99.90;;;;;;5094899;28;20664;-74
2023/11/01 02:29:05;;;;;;;1.80;0.90;;;9.70;99.90;;;;;;5090232;28;20630;-73
2023/11/01 02:31:32;;;;;;;1.80;1.20;;;9.80;99.90;;;;;;5093176;28;20629;-74
2023/11/01 02:34:00;;;;;;;0.73;0.70;;;9.80;99.90;;;;;;5089120;28;21228;-74
2023/11/01 02:36:28;;;;;;;0.77;0.70;;;9.80;99.90;;;;;;5091099;28;20621;-74
2023/11/01 02:38:56;;;;;;;1.10;1.00;;;9.90;99.90;;;;;;5093557;28;20628;-74
2023/11/01 02:41:25;;;;;;;2.33;0.80;;;9.70;99.90;;;;;;5092286;28;21051;-73
2023/11/01 02:43:53;;;;;;;0.70;0.70;;;9.80;99.90;;;;;;5093254;28;21170;-74
2023/11/01 02:46:21;;;;;;;1.70;1.27;;;9.90;99.90;;;;;;5089025;28;20636;-74
2023/11/01 02:48:48;;;;;;;4.77;1.00;;;9.70;99.90;;;;;;5092036;28;20625;-74
2023/11/01 02:51:17;;;;;;;1.60;1.13;;;9.70;99.90;;;;;;5091727;28;20636;-73
2023/11/01 02:53:44;;;;;;;5.13;1.03;;;9.70;99.90;;;;;;5096623;28;20622;-74
2023/11/01 02:56:10;;;;;;;0.77;0.77;;;9.70;99.90;;;;;;5089113;28;20635;-74
2023/11/01 02:58:39;;;;;;;1.70;0.93;;;9.70;99.90;;;;;;5096420;28;20632;-74
2023/11/01 03:01:07;;;;;;;1.10;0.80;;;9.60;99.90;;;;;;5088743;28;20621;-74
2023/11/01 03:03:33;;;;;;;1.80;1.20;;;9.60;99.90;;;;;;5089948;28;20641;-74
2023/11/01 03:06:00;;;;;;;1.30;1.20;;;9.60;99.90;;;;;;5089840;28;20627;-74
2023/11/01 03:08:27;;;;;;;1.27;1.00;;;9.60;99.90;;;;;;5090008;28;20618;-74
2023/11/01 03:10:55;;;;;;;1.13;0.90;;;9.60;99.90;;;;;;5090291;28;20757;-74
2023/11/01 03:13:22;;;;;;;1.70;0.73;;;9.50;99.90;;;;;;5092220;28;20645;-73
2023/11/01 03:15:51;;;;;;;1.23;0.90;;;9.50;99.90;;;;;;5089321;28;20664;-74
2023/11/01 03:18:18;;;;;;;0.80;0.70;;;9.60;99.90;;;;;;5093117;28;20720;-74
2023/11/01 03:20:46;;;;;;;0.93;0.77;;;9.60;99.90;;;;;;5089274;28;21128;-73
2023/11/01 03:23:13;;;;;;;0.70;0.70;;;9.60;99.90;;;;;;5094747;28;20641;-73
2023/11/01 03:25:40;;;;;;;1.67;1.10;;;9.60;99.90;;;;;;5094379;28;20632;-73
2023/11/01 03:28:08;;;;;;;1.20;0.87;;;9.60;99.90;;;;;;5085977;28;20636;-73
2023/11/01 03:30:36;;;;;;;0.80;0.80;;;9.60;99.90;;;;;;5097614;28;20636;-74
2023/11/01 03:33:06;;;;;;;1.00;0.80;;;9.80;99.90;;;;;;5092298;28;20974;-74
2023/11/01 03:35:34;;;;;;;0.80;0.80;;;9.70;99.90;;;;;;5096985;28;21251;-74
2023/11/01 03:38:01;;;;;;;3.57;0.90;;;9.70;99.90;;;;;;5090218;28;20636;-74
2023/11/01 03:40:30;;;;;;;3.07;1.00;;;9.70;99.90;;;;;;5084315;28;21023;-74
2023/11/01 03:42:58;;;;;;;1.90;1.03;;;9.60;99.90;;;;;;5092234;28;20624;-73
2023/11/01 03:45:26;;;;;;;2.60;0.60;;;9.60;99.90;;;;;;5090469;28;20701;-73
2023/11/01 03:47:54;;;;;;;2.47;0.53;;;9.70;99.90;;;;;;5091088;28;20629;-75
2023/11/01 03:50:27;;;;;;;1.10;1.00;;;9.70;99.90;;;;;;5093049;28;20709;-73
2023/11/01 03:52:54;;;;;;;0.60;0.60;;;9.60;99.90;;;;;;5104040;28;21117;-74
2023/11/01 03:55:21;;;;;;;1.60;1.50;;;9.50;99.90;;;;;;5100571;28;20655;-74
2023/11/01 03:57:48;;;;;;;0.70;0.70;;;9.60;99.90;;;;;;5093519;28;21206;-74
2023/11/01 04:00:20;;;;;;;1.23;0.80;;;9.60;99.90;;;;;;5088121;28;21173;-74
2023/11/01 04:02:49;;;;;;;0.70;0.70;;;9.60;99.90;;;;;;5086699;28;20629;-74
2023/11/01 04:05:16;;;;;;;0.87;0.73;;;9.40;99.90;;;;;;5087556;28;20974;-74
2023/11/01 04:07:44;;;;;;;0.83;0.83;;;9.40;99.90;;;;;;5085695;28;20636;-73
2023/11/01 04:10:11;;;;;;;1.23;0.80;;;9.40;99.90;;;;;;5085821;28;20633;-76
2023/11/01 04:12:38;;;;;;;2.40;1.10;;;9.40;99.90;;;;;;5087088;28;21079;-75
2023/11/01 04:15:06;;;;;;;1.47;1.23;;;9.30;99.90;;;;;;5049725;28;1063284;-75
2023/11/01 04:17:33;;;;;;;0.50;0.50;;;9.30;99.90;;;;;;5085945;28;20281;-75
2023/11/01 04:19:59;;;;;;;0.63;0.63;;;9.30;99.90;;;;;;5086282;28;20626;-75
2023/11/01 04:22:27;;;;;;;1.77;0.93;;;9.30;99.90;;;;;;5086877;28;20625;-75
2023/11/01 04:24:55;;;;;;;0.63;0.63;;;9.20;99.90;;;;;;5095113;28;20620;-75
2023/11/01 04:27:22;;;;;;;0.93;0.43;;;9.20;99.90;;;;;;5093509;28;20636;-75
2023/11/01 04:29:54;;;;;;;0.90;0.90;;;9.20;99.90;;;;;;5088000;28;20617;-73
2023/11/01 04:32:21;;;;;;;2.00;0.70;;;9.30;99.90;;;;;;5087678;28;20621;-74
2023/11/01 04:34:49;;;;;;;0.80;0.60;;;9.30;99.90;;;;;;5087799;28;20670;-74
2023/11/01 04:37:16;;;;;;;0.50;0.50;;;9.30;99.90;;;;;;5088708;28;20633;-74
2023/11/01 04:39:46;;;;;;;0.80;0.80;;;9.30;99.90;;;;;;5088314;28;20626;-74
2023/11/01 04:42:15;;;;;;;1.27;1.17;;;9.40;99.90;;;;;;5082087;28;21048;-74
2023/11/01 04:44:42;;;;;;;0.90;0.90;;;9.30;99.90;;;;;;5092715;28;20661;-74
2023/11/01 04:47:09;;;;;;;0.90;0.50;;;9.30;99.90;;;;;;5089807;28;20632;-74
2023/11/01 04:49:36;;;;;;;0.80;0.80;;;9.30;99.90;;;;;;5085962;28;20632;-74
2023/11/01 04:52:04;;;;;;;0.50;0.40;;;9.30;99.90;;;;;;5087635;28;20626;-74
2023/11/01 04:54:33;;;;;;;0.73;0.73;;;9.20;99.90;;;;;;5092275;28;21151;-74
2023/11/01 04:57:00;;;;;;;1.47;1.10;;;9.20;99.90;;;;;;5089379;28;21321;-74
2023/11/01 04:59:29;;;;;;;0.80;0.77;;;9.20;99.90;;;;;;5086591;28;21504;-74
2023/11/01 05:01:56;;;;;;;0.83;0.67;;;9.20;99.90;;;;;;5086376;28;20629;-74
2023/11/01 05:04:23;;;;;;;0.80;0.70;;;9.20;99.90;;;;;;5092424;28;20716;-74
2023/11/01 05:06:50;;;;;;;0.47;0.47;;;9.10;99.90;;;;;;5094553;28;20616;-74
2023/11/01 05:09:17;;;;;;;0.80;0.80;;;9.20;99.90;;;;;;5102126;28;20632;-74
2023/11/01 05:11:44;;;;;;;0.80;0.60;;;9.20;99.90;;;;;;5087389;28;20635;-73
2023/11/01 05:14:11;;;;;;;0.63;0.60;;;9.10;99.90;;;;;;5086328;28;20639;-74
2023/11/01 05:16:39;;;;;;;3.10;1.10;;;9.10;99.90;;;;;;5091663;28;20629;-74
2023/11/01 05:19:08;;;;;;;0.70;0.70;;;9.10;99.90;;;;;;5088902;28;20636;-74
2023/11/01 05:21:36;;;;;;;1.10;1.00;;;9.20;99.90;;;;;;5093593;28;21223;-73
2023/11/01 05:24:03;;;;;;;1.00;0.60;;;9.20;99.90;;;;;;5093734;28;20704;-73
2023/11/01 05:26:30;;;;;;;0.73;0.63;;;9.20;99.90;;;;;;5087581;28;20635;-74
2023/11/01 05:28:57;;;;;;;0.60;0.60;;;9.20;99.90;;;;;;5086455;28;20628;-74
2023/11/01 05:31:24;;;;;;;0.50;0.50;;;9.20;99.90;;;;;;5087401;28;20632;-74
2023/11/01 05:33:53;;;;;;;1.00;0.90;;;9.20;99.90;;;;;;5091845;28;20620;-74
2023/11/01 05:36:20;;;;;;;0.80;0.80;;;9.20;99.90;;;;;;5089355;28;20663;-74
2023/11/01 05:38:47;;;;;;;1.10;0.80;;;9.20;99.90;;;;;;5091906;28;21160;-74
2023/11/01 05:41:13;;;;;;;1.60;1.53;;;9.10;99.90;;;;;;5086280;28;20774;-74
2023/11/01 05:43:40;;;;;;;0.70;0.63;;;9.00;99.90;;;;;;5090422;28;20636;-73
2023/11/01 05:46:07;;;;;;;0.70;0.70;;;9.00;99.90;;;;;;5093067;28;20631;-73
2023/11/01 05:48:34;;;;;;;0.67;0.50;;;9.00;99.90;;;;;;5090729;28;20617;-73
2023/11/01 05:51:03;;;;;;;2.83;0.73;;;8.90;99.90;;;;;;5086718;28;20743;-74
2023/11/01 05:53:31;;;;;;;1.77;1.27;;;9.00;99.90;;;;;;5089938;28;21104;-73
2023/11/01 05:55:58;;;;;;;1.33;0.80;;;8.90;99.90;;;;;;5085916;28;20657;-73
2023/11/01 05:58:25;;;;;;;1.40;1.23;;;9.10;99.90;;;;;;5082460;28;20639;-73
2023/11/01 06:00:53;;;;;;;1.20;1.10;;;9.00;99.90;;;;;;5084177;28;20635;-73
2023/11/01 06:03:20;;;;;;;6.83;0.90;;;8.90;99.90;;;;;;5085081;28;20637;-73
2023/11/01 06:05:47;;;;;;;1.27;1.00;;;8.80;99.90;;;;;;5091116;28;20617;-73
2023/11/01 06:08:15;;;;;;;1.20;1.10;;;8.80;99.90;;;;;;5085324;28;20630;-74
2023/11/01 06:10:43;;;;;;;1.70;1.23;;;8.80;99.90;;;;;;5085690;28;20625;-74
2023/11/01 06:13:10;;;;;;;2.30;1.30;;;8.70;99.90;;;;;;5100331;28;20643;-74
2023/11/01 06:15:37;;;;;;;1.23;1.10;;;8.70;99.90;;;;;;5092733;28;20675;-74
2023/11/01 06:18:05;;;;;;;1.17;1.10;;;8.70;99.90;;;;;;5098096;28;20621;-74
2023/11/01 06:20:32;;;;;;;1.20;1.13;;;8.70;99.90;;;;;;5084961;28;20633;-74
2023/11/01 06:22:59;;;;;;;1.70;1.10;;;8.60;99.90;;;;;;5087227;28;20633;-74
2023/11/01 06:25:27;;;;;;;1.07;0.97;;;8.70;99.90;;;;;;5092546;28;20655;-74
2023/11/01 06:27:54;;;;;;;1.10;0.90;;;8.70;99.90;;;;;;5092955;28;20624;-74
2023/11/01 06:30:21;;;;;;;1.40;1.00;;;8.70;99.90;;;;;;5093321;28;20640;-74
2023/11/01 06:32:48;;;;;;;2.33;1.17;;;8.70;99.90;;;;;;5085292;28;20636;-74
2023/11/01 06:35:16;;;;;;;2.53;1.20;;;8.70;99.90;;;;;;5087567;28;20667;-74
2023/11/01 06:37:42;;;;;;;0.80;0.63;;;8.70;99.90;;;;;;5084604;28;20706;-74
2023/11/01 06:40:10;;;;;;;3.93;1.33;;;8.70;99.90;;;;;;5085203;28;20637;-74
2023/11/01 06:42:38;;;;;;;0.83;0.83;;;8.80;99.90;;;;;;5086773;28;20724;-74
2023/11/01 06:45:06;;;;;;;1.80;1.30;;;8.80;99.90;;;;;;5086065;28;20632;-73
2023/11/01 06:47:33;;;;;;;1.03;0.93;;;8.70;99.90;;;;;;5087967;28;20724;-74
2023/11/01 06:49:59;;;;;;;0.80;0.80;;;8.90;99.90;;;;;;5088885;28;20616;-74
2023/11/01 06:52:26;;;;;;;1.13;0.90;;;8.90;99.90;;;;;;5088361;28;20731;-74
2023/11/01 06:54:53;;;;;;;1.00;1.00;;;9.00;99.90;;;;;;5081213;28;20636;-74
2023/11/01 06:57:20;;;;;;;1.00;0.90;;;9.00;99.90;;;;;;5084589;28;20629;-74
2023/11/01 06:59:48;;;;;;;1.43;1.00;;;9.00;99.90;;;;;;5085185;28;20633;-74
2023/11/01 07:02:14;;;;;;;1.00;0.90;;;9.10;99.90;;;;;;5085030;28;20629;-74
2023/11/01 07:04:41;;;;;;;1.50;1.40;;;9.10;99.90;;;;;;5086424;28;20627;-74
2023/11/01 07:07:11;;;;;;;1.10;1.10;;;9.10;99.90;;;;;;5087390;28;20968;-74
2023/11/01 07:09:38;;;;;;;1.73;0.70;;;9.10;99.90;;;;;;5088783;28;21202;-74
2023/11/01 07:12:05;;;;;;;3.13;1.43;;;9.20;99.90;;;;;;5088904;28;20633;-74
2023/11/01 07:14:32;;;;;;;1.80;0.80;;;9.10;99.90;;;;;;5097356;28;20650;-74
2023/11/01 07:17:00;;;;;;;0.70;0.70;;;9.10;99.90;;;;;;5092370;28;21211;-74
2023/11/01 07:19:27;;;;;;;1.10;0.70;;;9.20;99.90;;;;;;5097301;28;21009;-74
2023/11/01 07:21:54;;;;;;;0.80;0.70;;;9.20;99.90;;;;;;5093119;28;20654;-74
2023/11/01 07:24:21;;;;;;;0.80;0.73;;;9.30;99.90;;;;;;5099375;28;20976;-74
2023/11/01 07:26:48;;;;;;;0.97;0.87;;;9.40;99.90;;;;;;5088979;28;20612;-74
2023/11/01 07:29:14;;;;;;;4.23;1.03;;;9.40;99.90;;;;;;5084667;28;20664;-74
2023/11/01 07:31:41;;;;;;;0.70;0.70;;;9.40;99.90;;;;;;5091992;28;20630;-74
2023/11/01 07:34:09;;;;;;;0.80;0.80;;;9.50;99.90;;;;;;5090246;28;20718;-74
2023/11/01 07:36:39;;;;;;;2.50;0.90;;;9.60;99.90;;;;;;5092035;28;21228;-74
2023/11/01 07:39:06;;;;;;;0.87;0.83;;;9.50;99.90;;;;;;5088914;28;20628;-74
2023/11/01 07:41:33;;;;;;;4.00;1.10;;;9.60;99.90;;;;;;5091020;28;21101;-73
2023/11/01 07:43:59;;;;;;;0.90;0.80;;;9.60;99.90;;;;;;5094588;28;20724;-74
2023/11/01 07:46:26;;;;;;;1.50;1.10;;;9.60;99.90;;;;;;5091935;28;20629;-74
2023/11/01 07:48:53;;;;;;;1.70;1.00;;;9.70;99.90;;;;;;5087394;28;20617;-74
2023/11/01 07:51:21;;;;;;;1.33;1.23;;;9.70;99.90;;;;;;5093760;28;20625;-74
2023/11/01 07:53:48;;;;;;;1.20;0.87;;;9.80;99.90;;;;;;5091128;28;20654;-74
2023/11/01 07:56:15;;;;;;;1.83;1.00;;;10.00;99.90;;;;;;5096824;28;20666;-75
2023/11/01 07:58:43;;;;;;;1.67;0.90;;;10.00;99.90;;;;;;5097088;28;20663;-76
2023/11/01 08:01:10;;;;;;;2.00;0.90;;;10.00;99.90;;;;;;5096759;28;20638;-76
2023/11/01 08:03:37;;;;;;;1.00;0.80;;;10.10;99.90;;;;;;5089499;28;20635;-76
2023/11/01 08:06:05;;;;;;;1.17;0.93;;;10.20;99.90;;;;;;5091823;28;20632;-77
2023/11/01 08:08:33;;;;;;;1.07;0.90;;;10.30;99.90;;;;;;5097694;28;20669;-77
2023/11/01 08:11:00;;;;;;;1.53;1.20;;;10.30;99.90;;;;;;5093573;28;20628;-77
2023/11/01 08:13:26;;;;;;;0.77;0.70;;;10.50;99.90;;;;;;5095677;28;21260;-77
2023/11/01 08:15:53;;;;;;;0.87;0.70;;;10.60;99.90;;;;;;5086909;28;21048;-79
2023/11/01 08:18:20;;;;;;;1.80;0.80;;;10.60;99.90;;;;;;5091876;28;20720;-79
2023/11/01 08:20:47;;;;;;;0.40;0.40;;;10.70;99.90;;;;;;5096416;28;21017;-79
2023/11/01 08:23:14;;;;;;;1.97;0.73;;;10.70;99.90;;;;;;5103069;28;20723;-79
2023/11/01 08:25:42;;;;;;;1.70;1.17;;;10.80;99.90;;;;;;5087012;28;20979;-79
2023/11/01 08:28:09;;;;;;;0.60;0.60;;;10.90;99.90;;;;;;5086894;28;20619;-77
2023/11/01 08:30:36;;;;;;;2.40;1.10;;;11.10;99.90;;;;;;5089575;28;20765;-79
2023/11/01 08:33:02;;;;;;;0.90;0.90;;;11.20;99.90;;;;;;5087552;28;20629;-77
2023/11/01 08:35:29;;;;;;;0.93;0.93;;;11.20;99.90;;;;;;5089074;28;20640;-75
2023/11/01 08:37:56;;;;;;;1.10;1.10;;;11.30;99.90;;;;;;5089767;28;21123;-75
2023/11/01 08:40:23;;;;;;;0.90;0.73;;;11.40;99.90;;;;;;5091155;28;20625;-75
2023/11/01 08:42:51;;;;;;;0.67;0.63;;;11.40;99.90;;;;;;5092514;28;20685;-76
2023/11/01 08:45:18;;;;;;;0.60;0.60;;;11.50;99.90;;;;;;5092069;28;20627;-71
2023/11/01 08:47:45;;;;;;;1.37;0.70;;;11.50;99.90;;;;;;5089611;28;21075;-71
2023/11/01 08:50:13;;;;;;;0.60;0.60;;;11.60;99.90;;;;;;5089015;28;20621;-71
2023/11/01 08:52:40;;;;;;;0.50;0.50;;;11.70;99.90;;;;;;5085893;28;20628;-71
2023/11/01 08:55:07;;;;;;;0.93;0.87;;;11.70;99.90;;;;;;5085801;28;20980;-72
2023/11/01 08:57:34;;;;;;;0.50;0.50;;;11.80;99.90;;;;;;5085852;28;21122;-71
2023/11/01 09:00:05;;;;;;;4.73;2.90;;;11.90;99.90;;;;;;5087243;28;20619;-71
2023/11/01 09:02:32;;;;;;;1.90;1.00;;;11.90;99.90;;;;;;5087036;28;20625;-73
2023/11/01 09:04:59;;;;;;;1.53;1.20;;;12.10;99.90;;;;;;5087294;28;20620;-72
2023/11/01 09:07:26;;;;;;;0.77;0.57;;;12.00;99.90;;;;;;5086402;28;20674;-71
2023/11/01 09:09:54;;;;;;;0.73;0.63;;;12.10;99.90;;;;;;5086307;28;20716;-71
2023/11/01 09:12:21;;;;;;;0.93;0.60;;;12.20;99.90;;;;;;5086974;28;20633;-72
2023/11/01 09:14:49;;;;;;;2.23;0.80;;;12.30;99.90;;;;;;5089334;28;21262;-72
2023/11/01 09:17:17;;;;;;;2.87;0.93;;;12.40;99.90;;;;;;5090790;28;20671;-72
2023/11/01 09:19:44;;;;;;;0.67;0.63;;;12.40;99.90;;;;;;5095345;28;20618;-73
2023/11/01 09:22:12;;;;;;;0.93;0.70;;;12.50;99.90;;;;;;5104022;28;21377;-72
2023/11/01 09:24:38;;;;;;;1.00;0.77;;;12.50;99.50;;;;;;5088846;28;20260;-73
2023/11/01 09:27:06;;;;;;;1.03;0.93;;;12.60;99.50;;;;;;5086710;28;20632;-73
2023/11/01 09:29:32;;;;;;;1.33;0.83;;;12.70;99.20;;;;;;5086727;28;21189;-72
2023/11/01 09:31:59;;;;;;;1.03;0.93;;;12.70;99.20;;;;;;5092093;28;20629;-72
2023/11/01 09:34:26;;;;;;;1.40;0.73;;;12.80;98.70;;;;;;5088092;28;20625;-72
2023/11/01 09:36:53;;;;;;;0.87;0.57;;;13.00;98.10;;;;;;5088073;28;20760;-72
2023/11/01 09:39:20;;;;;;;0.67;0.50;;;13.10;97.60;;;;;;5090131;28;21395;-71
2023/11/01 09:41:50;;;;;;;0.60;0.50;;;13.10;97.60;;;;;;5086935;28;20990;-72
2023/11/01 09:44:18;;;;;;;1.80;0.63;;;13.10;97.40;;;;;;5091332;28;20629;-72
2023/11/01 09:46:46;;;;;;;0.83;0.70;;;13.10;97.70;;;;;;5088367;28;20651;-72
2023/11/01 09:49:14;;;;;;;0.50;0.40;;;13.10;98.00;;;;;;5088590;28;20626;-73
2023/11/01 09:51:44;;;;;;;1.03;0.70;;;13.10;97.80;;;;;;5087901;28;20625;-73
2023/11/01 09:54:11;;;;;;;1.00;0.57;;;13.20;97.90;;;;;;5090057;28;20633;-73
2023/11/01 09:56:42;;;;;;;0.50;0.40;;;13.30;97.50;;;;;;5083468;28;20700;-73
2023/11/01 09:59:09;;;;;;;1.60;1.50;;;13.40;97.00;;;;;;5083736;28;20635;-73
2023/11/01 10:01:37;;;;;;;2.70;0.90;;;13.50;96.90;;;;;;5090540;28;20617;-73
2023/11/01 10:04:05;;;;;;;0.70;0.70;;;13.50;97.00;;;;;;5097763;28;20625;-72
2023/11/01 10:06:33;;;;;;;0.60;0.60;;;13.50;96.80;;;;;;5092152;28;20621;-72
2023/11/01 10:09:02;;;;;;;0.90;0.57;;;13.70;96.10;;;;;;5094230;28;20620;-71
2023/11/01 10:11:28;;;;;;;2.00;0.70;;;13.70;95.80;;;;;;5095900;28;20736;-71
2023/11/01 10:13:55;;;;;;;0.60;0.60;;;13.70;95.90;;;;;;5081037;28;20748;-72
2023/11/01 10:16:22;;;;;;;1.07;0.63;;;13.60;95.90;;;;;;5086113;28;20676;-73
2023/11/01 10:18:49;;;;;;;1.73;0.90;;;13.60;95.50;;;;;;5084942;28;20616;-73
2023/11/01 10:21:16;;;;;;;0.97;0.60;;;13.80;95.00;;;;;;5102406;28;20625;-72
2023/11/01 10:23:43;;;;;;;0.50;0.43;;;13.80;95.00;;;;;;5090791;28;20634;-72
2023/11/01 10:26:11;;;;;;;1.53;0.67;;;13.80;95.40;;;;;;5100845;28;20644;-72
2023/11/01 10:28:41;;;;;;;0.47;0.47;;;13.90;95.00;;;;;;5086311;28;20628;-72
2023/11/01 10:31:08;;;;;;;0.73;0.70;;;14.00;94.90;;;;;;5085929;28;20630;-72
2023/11/01 10:33:36;;;;;;;1.50;0.77;;;14.20;94.30;;;;;;5090585;28;20715;-72
2023/11/01 10:36:04;;;;;;;0.53;0.53;;;14.20;94.40;;;;;;5087919;28;20964;-72
2023/11/01 10:38:32;;;;;;;2.00;0.63;;;14.20;94.20;;;;;;5088483;28;20625;-72
2023/11/01 10:41:00;;;;;;;1.47;0.50;;;14.20;95.30;;;;;;5085875;28;21113;-74
2023/11/01 10:43:30;;;;;;;1.80;0.40;;;14.20;94.00;;;;;;5095655;28;21100;-74
2023/11/01 10:45:58;;;;;;;0.43;0.40;;;14.20;94.80;;;;;;5088164;28;20620;-74
2023/11/01 10:48:25;;;;;;;0.30;0.20;;;14.10;94.70;;;;;;5094244;28;20621;-73
2023/11/01 10:50:53;;;;;;;0.70;0.70;;;14.20;95.00;;;;;;5091265;28;20647;-72
2023/11/01 10:53:22;;;;;;;1.33;0.40;;;14.20;94.70;;;;;;5091766;28;20889;-72
2023/11/01 10:55:51;;;;;;;0.67;0.53;;;14.30;94.80;;;;;;5096222;28;20625;-72
2023/11/01 10:58:23;;;;;;;1.50;0.83;;;14.30;94.10;;;;;;5096238;28;21224;-73
2023/11/01 11:00:56;;;;;;;0.40;0.37;;;14.30;94.40;;;;;;5099475;28;21170;-72
2023/11/01 11:03:29;;;;;;;2.40;1.07;;;14.40;94.00;;;;;;5090678;28;20980;-71
2023/11/01 11:05:57;;;;;;;1.37;0.80;;;14.40;93.60;;;;;;5083306;28;20625;-72
2023/11/01 11:08:24;;;;;;;0.57;0.33;;;14.40;94.30;;;;;;5087070;28;20725;-71
2023/11/01 11:10:51;;;;;;;0.67;0.67;;;14.30;94.50;;;;;;5100511;28;21196;-72
2023/11/01 11:13:28;;;;;;;0.73;0.60;;;14.50;93.60;;;;;;5097770;28;20639;-72
2023/11/01 11:15:59;;;;;;;0.80;0.70;;;14.50;93.90;;;;;;5093403;28;20655;-71
2023/11/01 11:18:28;;;;;;;0.43;0.43;;;14.60;93.70;;;;;;5087211;28;20678;-71
2023/11/01 11:20:58;;;;;;;1.67;0.73;;;14.60;94.00;;;;;;5088776;28;20618;-71
2023/11/01 11:23:32;;;;;;;0.70;0.53;;;14.60;94.40;;;;;;5091729;28;20638;-71
2023/11/01 11:26:00;;;;;;;0.40;0.40;;;14.80;93.00;;;;;;5087624;28;20643;-71
2023/11/01 11:28:47;;;;;;;0.40;0.40;;;14.90;92.60;;;;;;5096467;28;20634;-72
2023/11/01 11:31:20;;;;;;;0.47;0.43;;;14.90;93.70;;;;;;5092527;28;20627;-72
2023/11/01 11:34:12;;;;;;;0.43;0.43;;;14.80;92.80;;;;;;5090793;28;20623;-72
2023/11/01 11:36:39;;;;;;;0.80;0.50;;;14.80;93.40;;;;;;5091041;28;21005;-72
2023/11/01 11:39:10;;;;;;;2.57;1.07;;;14.80;92.70;;;;;;5090922;28;21195;-72
2023/11/01 11:41:47;;;;;;;1.07;0.40;;;14.80;93.00;;;;;;5095614;28;20631;-72
2023/11/01 11:44:15;;;;;;;1.60;1.00;;;14.80;92.70;;;;;;5093034;28;21043;-72
2023/11/01 11:46:44;;;;;;;0.60;0.60;;;14.70;94.10;;;;;;5092476;28;20711;-72
2023/11/01 11:49:22;;;;;;;3.63;0.50;;;14.80;93.60;;;;;;5088109;28;20654;-72
2023/11/01 11:51:51;;;;;;;0.60;0.50;;;14.70;94.20;;;;;;5091422;28;20622;-72
2023/11/01 11:54:20;;;;;;;1.53;0.83;;;14.80;94.20;;;;;;5085745;28;20638;-72
2023/11/01 11:56:47;;;;;;;0.50;0.50;;;14.90;92.50;;;;;;5095846;28;21084;-72
2023/11/01 11:59:20;;;;;;;0.50;0.50;;;14.80;91.90;;;;;;5095754;28;20690;-72
2023/11/01 12:01:51;;;;;;;0.70;0.70;;;14.90;92.30;;;;;;5091677;28;20636;-72
2023/11/01 12:04:19;;;;;;;0.70;0.60;;;14.80;92.10;;;;;;5089522;28;20634;-72
2023/11/01 12:06:47;;;;;;;1.10;0.63;;;15.00;92.00;;;;;;5094116;28;21034;-72
2023/11/01 12:09:17;;;;;;;0.93;0.73;;;15.00;92.10;;;;;;5100814;28;20623;-72
2023/11/01 12:11:45;;;;;;;0.70;0.70;;;15.20;91.50;;;;;;5092349;28;20751;-72
2023/11/01 12:14:16;;;;;;;0.93;0.63;;;15.20;92.00;;;;;;5094266;28;20643;-72
2023/11/01 12:16:43;;;;;;;0.60;0.60;;;15.20;92.30;;;;;;5088262;28;20629;-72
2023/11/01 12:19:18;;;;;;;0.70;0.70;;;15.20;92.50;;;;;;5092252;28;20962;-71
2023/11/01 12:21:46;;;;;;;0.77;0.70;;;15.30;92.50;;;;;;5101733;28;20715;-71
2023/11/01 12:24:15;;;;;;;1.20;0.47;;;15.30;92.50;;;;;;5102709;28;20998;-71
2023/11/01 12:26:58;;;;;;;0.73;0.60;;;15.30;92.30;;;;;;5087993;28;20624;-72
2023/11/01 12:29:31;;;;;;;0.63;0.63;;;15.30;90.90;;;;;;5095476;28;21219;-72
2023/11/01 12:32:06;;;;;;;0.90;0.60;;;15.40;91.40;;;;;;5103489;28;21186;-72
2023/11/01 12:34:36;;;;;;;0.67;0.67;;;15.40;91.60;;;;;;5091913;28;20647;-72
2023/11/01 12:37:04;;;;;;;1.60;1.17;;;15.30;92.10;;;;;;5080180;28;20671;-72
2023/11/01 12:39:32;;;;;;;0.70;0.70;;;15.30;92.10;;;;;;5090604;28;20640;-71
2023/11/01 12:42:19;;;;;;;0.63;0.63;;;15.20;92.30;;;;;;5090721;28;20722;-71
2023/11/01 12:44:46;;;;;;;0.50;0.50;;;15.30;92.30;;;;;;5092694;28;20642;-72
2023/11/01 12:47:13;;;;;;;2.60;0.50;;;15.30;91.70;;;;;;5089362;28;21107;-72
2023/11/01 12:49:42;;;;;;;0.40;0.40;;;15.30;91.50;;;;;;5087535;28;20635;-72
2023/11/01 12:52:09;;;;;;;0.77;0.63;;;15.30;91.40;;;;;;5087423;28;20624;-73
2023/11/01 12:54:36;;;;;;;0.77;0.60;;;15.20;92.20;;;;;;5088639;28;21026;-73
2023/11/01 12:57:05;;;;;;;2.10;0.80;;;15.20;92.50;;;;;;5086582;28;20660;-72